sensor_id;sensor_type;location;lat;lon;timestamp;P1;durP1;ratioP1;P2;durP2;ratioP2
43154;SDS011;34212;51.018;13.586;2023-07-31T00:02:02;4.43;;;1.63;;
43154;SDS011;34212;51.018;13.586;2023-07-31T00:07:04;5.38;;;1.85;;
43154;SDS011;34212;51.018;13.586;2023-07-31T00:12:07;2.88;;;1.42;;
43154;SDS011;34212;51.018;13.586;2023-07-31T00:17:09;2.88;;;1.50;;
43154;SDS011;34212;51.018;13.586;2023-07-31T00:22:10;4.40;;;1.60;;
43154;SDS011;34212;51.018;13.586;2023-07-31T00:27:12;4.50;;;1.53;;
43154;SDS011;34212;51.018;13.586;2023-07-31T00:32:13;2.33;;;1.60;;
43154;SDS011;34212;51.018;13.586;2023-07-31T00:37:15;4.00;;;1.42;;
43154;SDS011;34212;51.018;13.586;2023-07-31T00:42:16;4.57;;;1.70;;
43154;SDS011;34212;51.018;13.586;2023-07-31T00:47:18;6.40;;;1.53;;
43154;SDS011;34212;51.018;13.586;2023-07-31T00:52:19;3.67;;;1.50;;
43154;SDS011;34212;51.018;13.586;2023-07-31T00:57:21;6.03;;;1.92;;
43154;SDS011;34212;51.018;13.586;2023-07-31T01:02:25;7.68;;;1.63;;
43154;SDS011;34212;51.018;13.586;2023-07-31T01:07:28;5.07;;;1.83;;
43154;SDS011;34212;51.018;13.586;2023-07-31T01:12:36;3.72;;;1.90;;
43154;SDS011;34212;51.018;13.586;2023-07-31T01:17:39;4.97;;;1.60;;
43154;SDS011;34212;51.018;13.586;2023-07-31T01:22:49;3.33;;;2.25;;
43154;SDS011;34212;51.018;13.586;2023-07-31T01:28:08;4.22;;;1.73;;
43154;SDS011;34212;51.018;13.586;2023-07-31T01:33:15;5.05;;;1.40;;
43154;SDS011;34212;51.018;13.586;2023-07-31T01:38:20;4.78;;;1.90;;
43154;SDS011;34212;51.018;13.586;2023-07-31T01:43:23;4.55;;;1.70;;
43154;SDS011;34212;51.018;13.586;2023-07-31T01:48:25;3.88;;;1.55;;
43154;SDS011;34212;51.018;13.586;2023-07-31T01:53:27;3.07;;;1.57;;
43154;SDS011;34212;51.018;13.586;2023-07-31T01:58:28;4.57;;;2.00;;
43154;SDS011;34212;51.018;13.586;2023-07-31T02:03:29;5.10;;;1.60;;
43154;SDS011;34212;51.018;13.586;2023-07-31T02:08:31;4.60;;;2.45;;
43154;SDS011;34212;51.018;13.586;2023-07-31T02:13:32;3.47;;;1.33;;
43154;SDS011;34212;51.018;13.586;2023-07-31T02:18:34;4.77;;;1.50;;
43154;SDS011;34212;51.018;13.586;2023-07-31T02:23:35;7.27;;;1.87;;
43154;SDS011;34212;51.018;13.586;2023-07-31T02:28:37;4.37;;;1.87;;
43154;SDS011;34212;51.018;13.586;2023-07-31T02:33:39;3.70;;;1.50;;
43154;SDS011;34212;51.018;13.586;2023-07-31T02:38:40;3.73;;;1.70;;
43154;SDS011;34212;51.018;13.586;2023-07-31T02:43:42;4.80;;;1.77;;
43154;SDS011;34212;51.018;13.586;2023-07-31T02:48:43;5.13;;;1.73;;
43154;SDS011;34212;51.018;13.586;2023-07-31T02:53:45;2.97;;;1.47;;
43154;SDS011;34212;51.018;13.586;2023-07-31T02:58:46;4.73;;;1.90;;
43154;SDS011;34212;51.018;13.586;2023-07-31T03:03:48;4.00;;;1.50;;
43154;SDS011;34212;51.018;13.586;2023-07-31T03:08:49;4.83;;;1.63;;
43154;SDS011;34212;51.018;13.586;2023-07-31T03:13:51;4.63;;;1.57;;
43154;SDS011;34212;51.018;13.586;2023-07-31T03:18:52;4.93;;;1.60;;
43154;SDS011;34212;51.018;13.586;2023-07-31T03:23:54;6.40;;;1.98;;
43154;SDS011;34212;51.018;13.586;2023-07-31T03:28:55;2.88;;;1.38;;
43154;SDS011;34212;51.018;13.586;2023-07-31T03:33:57;4.17;;;1.83;;
43154;SDS011;34212;51.018;13.586;2023-07-31T03:38:58;5.37;;;1.80;;
43154;SDS011;34212;51.018;13.586;2023-07-31T03:44:00;4.82;;;1.90;;
43154;SDS011;34212;51.018;13.586;2023-07-31T03:49:02;4.53;;;2.80;;
43154;SDS011;34212;51.018;13.586;2023-07-31T03:54:04;5.20;;;2.03;;
43154;SDS011;34212;51.018;13.586;2023-07-31T03:59:06;4.57;;;1.90;;
43154;SDS011;34212;51.018;13.586;2023-07-31T04:04:07;5.10;;;2.07;;
43154;SDS011;34212;51.018;13.586;2023-07-31T04:09:09;5.50;;;1.80;;
43154;SDS011;34212;51.018;13.586;2023-07-31T04:14:10;4.57;;;1.80;;
43154;SDS011;34212;51.018;13.586;2023-07-31T04:19:12;3.37;;;1.80;;
43154;SDS011;34212;51.018;13.586;2023-07-31T04:24:17;4.28;;;2.00;;
43154;SDS011;34212;51.018;13.586;2023-07-31T04:29:25;5.85;;;1.92;;
43154;SDS011;34212;51.018;13.586;2023-07-31T04:34:26;4.00;;;1.73;;
43154;SDS011;34212;51.018;13.586;2023-07-31T04:39:28;4.10;;;1.80;;
43154;SDS011;34212;51.018;13.586;2023-07-31T04:44:29;4.00;;;2.20;;
43154;SDS011;34212;51.018;13.586;2023-07-31T04:49:31;5.88;;;2.05;;
43154;SDS011;34212;51.018;13.586;2023-07-31T04:54:33;2.88;;;1.60;;
43154;SDS011;34212;51.018;13.586;2023-07-31T04:59:34;3.93;;;2.17;;
43154;SDS011;34212;51.018;13.586;2023-07-31T05:04:36;7.23;;;2.67;;
43154;SDS011;34212;51.018;13.586;2023-07-31T05:09:38;6.00;;;2.20;;
43154;SDS011;34212;51.018;13.586;2023-07-31T05:14:40;5.93;;;2.38;;
43154;SDS011;34212;51.018;13.586;2023-07-31T05:19:41;4.33;;;2.10;;
43154;SDS011;34212;51.018;13.586;2023-07-31T05:24:43;3.42;;;2.10;;
43154;SDS011;34212;51.018;13.586;2023-07-31T05:29:45;3.80;;;2.17;;
43154;SDS011;34212;51.018;13.586;2023-07-31T05:34:46;6.07;;;2.05;;
43154;SDS011;34212;51.018;13.586;2023-07-31T05:44:50;4.82;;;1.75;;
43154;SDS011;34212;51.018;13.586;2023-07-31T05:49:51;2.93;;;1.83;;
43154;SDS011;34212;51.018;13.586;2023-07-31T05:54:53;4.60;;;2.15;;
43154;SDS011;34212;51.018;13.586;2023-07-31T05:59:55;4.67;;;2.10;;
43154;SDS011;34212;51.018;13.586;2023-07-31T06:04:56;4.13;;;1.97;;
43154;SDS011;34212;51.018;13.586;2023-07-31T06:09:58;5.97;;;2.28;;
43154;SDS011;34212;51.018;13.586;2023-07-31T06:15:05;4.00;;;1.90;;
43154;SDS011;34212;51.018;13.586;2023-07-31T06:20:07;3.63;;;1.80;;
43154;SDS011;34212;51.018;13.586;2023-07-31T06:25:09;3.72;;;2.08;;
43154;SDS011;34212;51.018;13.586;2023-07-31T06:30:15;4.20;;;2.10;;
43154;SDS011;34212;51.018;13.586;2023-07-31T06:35:17;3.93;;;1.80;;
43154;SDS011;34212;51.018;13.586;2023-07-31T06:40:18;5.78;;;2.05;;
43154;SDS011;34212;51.018;13.586;2023-07-31T06:45:20;5.80;;;2.20;;
43154;SDS011;34212;51.018;13.586;2023-07-31T06:50:23;3.38;;;2.28;;
43154;SDS011;34212;51.018;13.586;2023-07-31T06:55:25;2.93;;;1.70;;
43154;SDS011;34212;51.018;13.586;2023-07-31T07:00:27;7.15;;;2.42;;
43154;SDS011;34212;51.018;13.586;2023-07-31T07:05:29;5.20;;;2.78;;
43154;SDS011;34212;51.018;13.586;2023-07-31T07:10:31;5.00;;;2.00;;
43154;SDS011;34212;51.018;13.586;2023-07-31T07:15:32;4.40;;;1.83;;
43154;SDS011;34212;51.018;13.586;2023-07-31T07:20:34;5.28;;;2.10;;
43154;SDS011;34212;51.018;13.586;2023-07-31T07:25:37;3.60;;;1.92;;
43154;SDS011;34212;51.018;13.586;2023-07-31T07:30:39;4.82;;;1.88;;
43154;SDS011;34212;51.018;13.586;2023-07-31T07:35:40;4.32;;;2.00;;
43154;SDS011;34212;51.018;13.586;2023-07-31T07:40:42;5.75;;;1.98;;
43154;SDS011;34212;51.018;13.586;2023-07-31T07:45:44;5.25;;;2.45;;
43154;SDS011;34212;51.018;13.586;2023-07-31T07:50:45;4.80;;;2.28;;
43154;SDS011;34212;51.018;13.586;2023-07-31T07:55:46;3.67;;;1.92;;
43154;SDS011;34212;51.018;13.586;2023-07-31T08:00:49;5.07;;;2.00;;
43154;SDS011;34212;51.018;13.586;2023-07-31T08:05:52;4.53;;;2.30;;
43154;SDS011;34212;51.018;13.586;2023-07-31T08:10:53;6.60;;;2.00;;
43154;SDS011;34212;51.018;13.586;2023-07-31T08:15:55;4.47;;;1.90;;
43154;SDS011;34212;51.018;13.586;2023-07-31T08:20:57;3.72;;;2.03;;
43154;SDS011;34212;51.018;13.586;2023-07-31T08:25:58;3.47;;;2.00;;
43154;SDS011;34212;51.018;13.586;2023-07-31T08:31:00;5.30;;;2.17;;
43154;SDS011;34212;51.018;13.586;2023-07-31T08:36:02;3.72;;;2.47;;
43154;SDS011;34212;51.018;13.586;2023-07-31T08:41:03;3.65;;;1.95;;
43154;SDS011;34212;51.018;13.586;2023-07-31T08:46:06;4.63;;;2.00;;
43154;SDS011;34212;51.018;13.586;2023-07-31T08:51:08;7.05;;;2.20;;
43154;SDS011;34212;51.018;13.586;2023-07-31T08:56:10;3.75;;;2.10;;
43154;SDS011;34212;51.018;13.586;2023-07-31T09:01:13;6.13;;;2.40;;
43154;SDS011;34212;51.018;13.586;2023-07-31T09:06:16;4.63;;;2.00;;
43154;SDS011;34212;51.018;13.586;2023-07-31T09:11:21;4.68;;;2.25;;
43154;SDS011;34212;51.018;13.586;2023-07-31T09:16:28;5.20;;;2.40;;
43154;SDS011;34212;51.018;13.586;2023-07-31T09:21:33;8.32;;;2.10;;
43154;SDS011;34212;51.018;13.586;2023-07-31T09:26:49;4.05;;;2.35;;
43154;SDS011;34212;51.018;13.586;2023-07-31T09:31:55;5.43;;;2.25;;
43154;SDS011;34212;51.018;13.586;2023-07-31T09:36:58;3.72;;;2.00;;
43154;SDS011;34212;51.018;13.586;2023-07-31T09:42:03;4.88;;;2.40;;
43154;SDS011;34212;51.018;13.586;2023-07-31T09:47:04;7.68;;;2.58;;
43154;SDS011;34212;51.018;13.586;2023-07-31T09:52:11;4.75;;;2.30;;
43154;SDS011;34212;51.018;13.586;2023-07-31T09:57:14;6.70;;;2.40;;
43154;SDS011;34212;51.018;13.586;2023-07-31T10:02:21;5.78;;;2.55;;
43154;SDS011;34212;51.018;13.586;2023-07-31T10:07:23;5.80;;;2.75;;
43154;SDS011;34212;51.018;13.586;2023-07-31T10:12:27;2.78;;;1.98;;
43154;SDS011;34212;51.018;13.586;2023-07-31T10:17:30;5.72;;;2.28;;
43154;SDS011;34212;51.018;13.586;2023-07-31T10:22:35;3.80;;;2.13;;
43154;SDS011;34212;51.018;13.586;2023-07-31T10:27:40;3.28;;;2.00;;
43154;SDS011;34212;51.018;13.586;2023-07-31T10:32:42;4.43;;;2.20;;
43154;SDS011;34212;51.018;13.586;2023-07-31T10:37:45;3.28;;;2.30;;
43154;SDS011;34212;51.018;13.586;2023-07-31T10:42:50;3.30;;;2.30;;
43154;SDS011;34212;51.018;13.586;2023-07-31T10:48:00;3.17;;;2.20;;
43154;SDS011;34212;51.018;13.586;2023-07-31T10:53:03;4.57;;;2.15;;
43154;SDS011;34212;51.018;13.586;2023-07-31T10:58:09;3.90;;;2.20;;
43154;SDS011;34212;51.018;13.586;2023-07-31T11:03:16;2.65;;;1.85;;
43154;SDS011;34212;51.018;13.586;2023-07-31T11:08:23;3.10;;;2.08;;
43154;SDS011;34212;51.018;13.586;2023-07-31T11:13:26;4.07;;;2.45;;
43154;SDS011;34212;51.018;13.586;2023-07-31T11:18:28;5.45;;;2.50;;
43154;SDS011;34212;51.018;13.586;2023-07-31T11:23:30;2.38;;;1.90;;
43154;SDS011;34212;51.018;13.586;2023-07-31T11:33:35;3.67;;;1.90;;
43154;SDS011;34212;51.018;13.586;2023-07-31T11:38:36;3.25;;;2.03;;
43154;SDS011;34212;51.018;13.586;2023-07-31T11:43:38;8.63;;;2.00;;
43154;SDS011;34212;51.018;13.586;2023-07-31T11:58:45;4.07;;;1.63;;
43154;SDS011;34212;51.018;13.586;2023-07-31T12:03:51;2.28;;;1.50;;
43154;SDS011;34212;51.018;13.586;2023-07-31T12:08:53;3.50;;;1.50;;
43154;SDS011;34212;51.018;13.586;2023-07-31T12:14:03;3.00;;;1.88;;
43154;SDS011;34212;51.018;13.586;2023-07-31T12:19:06;3.70;;;1.75;;
43154;SDS011;34212;51.018;13.586;2023-07-31T12:24:08;3.33;;;1.77;;
43154;SDS011;34212;51.018;13.586;2023-07-31T12:29:09;3.30;;;2.00;;
43154;SDS011;34212;51.018;13.586;2023-07-31T12:39:19;2.72;;;1.98;;
43154;SDS011;34212;51.018;13.586;2023-07-31T12:44:21;3.90;;;2.17;;
43154;SDS011;34212;51.018;13.586;2023-07-31T12:49:23;4.40;;;1.85;;
43154;SDS011;34212;51.018;13.586;2023-07-31T12:59:26;4.00;;;1.95;;
43154;SDS011;34212;51.018;13.586;2023-07-31T13:04:27;1.95;;;1.48;;
43154;SDS011;34212;51.018;13.586;2023-07-31T13:09:29;3.47;;;2.10;;
43154;SDS011;34212;51.018;13.586;2023-07-31T13:14:30;4.68;;;2.15;;
43154;SDS011;34212;51.018;13.586;2023-07-31T13:24:34;5.43;;;1.85;;
43154;SDS011;34212;51.018;13.586;2023-07-31T13:34:37;3.78;;;1.73;;
43154;SDS011;34212;51.018;13.586;2023-07-31T13:39:39;3.30;;;2.17;;
43154;SDS011;34212;51.018;13.586;2023-07-31T13:44:41;3.50;;;1.80;;
43154;SDS011;34212;51.018;13.586;2023-07-31T13:49:43;2.90;;;1.88;;
43154;SDS011;34212;51.018;13.586;2023-07-31T13:59:46;2.28;;;1.60;;
43154;SDS011;34212;51.018;13.586;2023-07-31T14:09:49;3.95;;;1.75;;
43154;SDS011;34212;51.018;13.586;2023-07-31T14:19:52;2.55;;;1.92;;
43154;SDS011;34212;51.018;13.586;2023-07-31T14:24:54;2.55;;;1.73;;
43154;SDS011;34212;51.018;13.586;2023-07-31T14:34:58;3.35;;;1.65;;
43154;SDS011;34212;51.018;13.586;2023-07-31T14:39:59;4.15;;;1.80;;
43154;SDS011;34212;51.018;13.586;2023-07-31T14:50:03;2.70;;;1.73;;
43154;SDS011;34212;51.018;13.586;2023-07-31T14:55:05;4.75;;;1.88;;
43154;SDS011;34212;51.018;13.586;2023-07-31T15:00:07;2.58;;;1.95;;
43154;SDS011;34212;51.018;13.586;2023-07-31T15:05:09;3.22;;;1.83;;
43154;SDS011;34212;51.018;13.586;2023-07-31T15:15:13;5.85;;;1.75;;
43154;SDS011;34212;51.018;13.586;2023-07-31T15:20:16;3.58;;;1.90;;
43154;SDS011;34212;51.018;13.586;2023-07-31T15:25:18;2.70;;;1.70;;
43154;SDS011;34212;51.018;13.586;2023-07-31T15:35:21;3.33;;;2.13;;
43154;SDS011;34212;51.018;13.586;2023-07-31T15:40:23;2.90;;;2.00;;
43154;SDS011;34212;51.018;13.586;2023-07-31T15:50:26;3.08;;;1.95;;
43154;SDS011;34212;51.018;13.586;2023-07-31T16:00:28;5.05;;;1.75;;
43154;SDS011;34212;51.018;13.586;2023-07-31T16:05:30;4.63;;;1.80;;
43154;SDS011;34212;51.018;13.586;2023-07-31T16:10:32;3.97;;;2.00;;
43154;SDS011;34212;51.018;13.586;2023-07-31T16:20:35;6.35;;;2.53;;
43154;SDS011;34212;51.018;13.586;2023-07-31T16:25:37;2.55;;;1.95;;
43154;SDS011;34212;51.018;13.586;2023-07-31T16:30:38;4.20;;;2.20;;
43154;SDS011;34212;51.018;13.586;2023-07-31T16:40:41;2.97;;;1.97;;
43154;SDS011;34212;51.018;13.586;2023-07-31T16:45:43;3.90;;;2.10;;
43154;SDS011;34212;51.018;13.586;2023-07-31T16:55:46;4.27;;;1.90;;
43154;SDS011;34212;51.018;13.586;2023-07-31T17:00:47;2.75;;;1.95;;
43154;SDS011;34212;51.018;13.586;2023-07-31T17:10:50;4.17;;;2.27;;
43154;SDS011;34212;51.018;13.586;2023-07-31T17:15:52;5.10;;;2.22;;
43154;SDS011;34212;51.018;13.586;2023-07-31T17:20:53;6.95;;;2.17;;
43154;SDS011;34212;51.018;13.586;2023-07-31T17:25:55;6.28;;;2.20;;
43154;SDS011;34212;51.018;13.586;2023-07-31T17:30:56;5.20;;;2.33;;
43154;SDS011;34212;51.018;13.586;2023-07-31T17:35:58;5.15;;;2.08;;
43154;SDS011;34212;51.018;13.586;2023-07-31T17:40:59;5.03;;;2.00;;
43154;SDS011;34212;51.018;13.586;2023-07-31T17:46:01;3.13;;;1.65;;
43154;SDS011;34212;51.018;13.586;2023-07-31T17:51:03;3.38;;;2.00;;
43154;SDS011;34212;51.018;13.586;2023-07-31T17:56:05;5.93;;;2.30;;
43154;SDS011;34212;51.018;13.586;2023-07-31T18:06:08;5.57;;;2.10;;
43154;SDS011;34212;51.018;13.586;2023-07-31T18:11:10;2.95;;;1.83;;
43154;SDS011;34212;51.018;13.586;2023-07-31T18:16:11;3.65;;;2.00;;
43154;SDS011;34212;51.018;13.586;2023-07-31T18:21:13;3.08;;;2.00;;
43154;SDS011;34212;51.018;13.586;2023-07-31T18:26:14;4.38;;;2.22;;
43154;SDS011;34212;51.018;13.586;2023-07-31T18:31:16;4.07;;;1.98;;
43154;SDS011;34212;51.018;13.586;2023-07-31T18:41:19;3.40;;;1.83;;
43154;SDS011;34212;51.018;13.586;2023-07-31T18:46:20;3.72;;;2.00;;
43154;SDS011;34212;51.018;13.586;2023-07-31T18:51:22;3.35;;;2.25;;
43154;SDS011;34212;51.018;13.586;2023-07-31T18:56:24;3.90;;;2.30;;
43154;SDS011;34212;51.018;13.586;2023-07-31T19:01:26;2.95;;;1.85;;
43154;SDS011;34212;51.018;13.586;2023-07-31T19:06:27;4.20;;;2.45;;
43154;SDS011;34212;51.018;13.586;2023-07-31T19:11:29;3.92;;;2.67;;
43154;SDS011;34212;51.018;13.586;2023-07-31T19:16:33;5.57;;;2.40;;
43154;SDS011;34212;51.018;13.586;2023-07-31T19:21:35;4.07;;;2.55;;
43154;SDS011;34212;51.018;13.586;2023-07-31T19:26:36;5.20;;;2.40;;
43154;SDS011;34212;51.018;13.586;2023-07-31T19:31:39;7.25;;;2.67;;
43154;SDS011;34212;51.018;13.586;2023-07-31T19:41:43;6.10;;;2.72;;
43154;SDS011;34212;51.018;13.586;2023-07-31T19:46:45;4.03;;;2.40;;
43154;SDS011;34212;51.018;13.586;2023-07-31T19:51:46;7.60;;;2.60;;
43154;SDS011;34212;51.018;13.586;2023-07-31T19:56:48;4.85;;;2.63;;
43154;SDS011;34212;51.018;13.586;2023-07-31T20:01:50;3.42;;;2.42;;
43154;SDS011;34212;51.018;13.586;2023-07-31T20:06:52;5.07;;;2.65;;
43154;SDS011;34212;51.018;13.586;2023-07-31T20:11:53;5.15;;;2.72;;
43154;SDS011;34212;51.018;13.586;2023-07-31T20:16:56;4.90;;;2.85;;
43154;SDS011;34212;51.018;13.586;2023-07-31T20:21:57;5.50;;;2.70;;
43154;SDS011;34212;51.018;13.586;2023-07-31T20:26:59;5.57;;;2.85;;
43154;SDS011;34212;51.018;13.586;2023-07-31T20:32:01;6.28;;;2.58;;
43154;SDS011;34212;51.018;13.586;2023-07-31T20:37:02;4.97;;;2.45;;
43154;SDS011;34212;51.018;13.586;2023-07-31T20:42:04;6.43;;;2.65;;
43154;SDS011;34212;51.018;13.586;2023-07-31T20:47:06;5.97;;;2.88;;
43154;SDS011;34212;51.018;13.586;2023-07-31T20:52:07;5.03;;;2.47;;
43154;SDS011;34212;51.018;13.586;2023-07-31T20:57:09;3.95;;;2.42;;
43154;SDS011;34212;51.018;13.586;2023-07-31T21:02:10;4.25;;;2.40;;
43154;SDS011;34212;51.018;13.586;2023-07-31T21:07:12;8.52;;;2.65;;
43154;SDS011;34212;51.018;13.586;2023-07-31T21:12:16;6.65;;;3.05;;
43154;SDS011;34212;51.018;13.586;2023-07-31T21:17:17;7.50;;;3.15;;
43154;SDS011;34212;51.018;13.586;2023-07-31T21:22:19;6.30;;;2.70;;
43154;SDS011;34212;51.018;13.586;2023-07-31T21:27:20;7.40;;;2.78;;
43154;SDS011;34212;51.018;13.586;2023-07-31T21:32:22;4.65;;;2.70;;
43154;SDS011;34212;51.018;13.586;2023-07-31T21:37:23;8.65;;;2.83;;
43154;SDS011;34212;51.018;13.586;2023-07-31T21:42:25;4.13;;;2.58;;
43154;SDS011;34212;51.018;13.586;2023-07-31T21:47:26;5.88;;;2.45;;
43154;SDS011;34212;51.018;13.586;2023-07-31T21:52:28;5.68;;;2.80;;
43154;SDS011;34212;51.018;13.586;2023-07-31T21:57:29;6.00;;;2.40;;
43154;SDS011;34212;51.018;13.586;2023-07-31T22:02:31;4.78;;;2.50;;
43154;SDS011;34212;51.018;13.586;2023-07-31T22:12:34;4.23;;;2.43;;
43154;SDS011;34212;51.018;13.586;2023-07-31T22:17:36;6.38;;;3.05;;
43154;SDS011;34212;51.018;13.586;2023-07-31T22:22:37;5.57;;;2.20;;
43154;SDS011;34212;51.018;13.586;2023-07-31T22:27:39;5.68;;;2.33;;
43154;SDS011;34212;51.018;13.586;2023-07-31T22:32:40;4.30;;;2.25;;
43154;SDS011;34212;51.018;13.586;2023-07-31T22:37:42;4.68;;;2.30;;
43154;SDS011;34212;51.018;13.586;2023-07-31T22:42:43;3.78;;;2.47;;
43154;SDS011;34212;51.018;13.586;2023-07-31T22:47:45;4.75;;;2.20;;
43154;SDS011;34212;51.018;13.586;2023-07-31T22:52:46;4.38;;;2.60;;
43154;SDS011;34212;51.018;13.586;2023-07-31T22:57:50;4.15;;;2.40;;
43154;SDS011;34212;51.018;13.586;2023-07-31T23:02:52;4.68;;;2.70;;
43154;SDS011;34212;51.018;13.586;2023-07-31T23:07:53;2.88;;;2.40;;
43154;SDS011;34212;51.018;13.586;2023-07-31T23:12:55;4.40;;;2.78;;
43154;SDS011;34212;51.018;13.586;2023-07-31T23:17:56;5.40;;;2.50;;
43154;SDS011;34212;51.018;13.586;2023-07-31T23:22:58;5.35;;;2.67;;
43154;SDS011;34212;51.018;13.586;2023-07-31T23:27:59;5.35;;;2.85;;
43154;SDS011;34212;51.018;13.586;2023-07-31T23:33:01;4.20;;;2.33;;
43154;SDS011;34212;51.018;13.586;2023-07-31T23:38:02;6.22;;;3.05;;
43154;SDS011;34212;51.018;13.586;2023-07-31T23:43:04;5.32;;;2.70;;
43154;SDS011;34212;51.018;13.586;2023-07-31T23:48:06;4.28;;;3.08;;
43154;SDS011;34212;51.018;13.586;2023-07-31T23:53:07;4.82;;;2.70;;
43154;SDS011;34212;51.018;13.586;2023-07-31T23:58:09;4.93;;;2.92;;
